Time;durP1;ratioP1;P1;durP2;ratioP2;P2;SDS_P1;SDS_P2;PMS_P1;PMS_P2;Temp;Humidity;BMP_temperature;BMP_pressure;BME280_temperature;BME280_humidity;BME280_pressure;Samples;Min_cycle;Max_cycle;Signal;HPM_P1;HPM_P2
2022/08/01 00:00:26;;;;;;;1.35;0.80;;;23.00;74.20;;;;;;5055188;28;20045;-68
2022/08/01 00:02:52;;;;;;;2.35;0.90;;;23.00;74.40;;;;;;5055046;28;20052;-69
2022/08/01 00:05:18;;;;;;;1.42;0.80;;;23.10;74.70;;;;;;5054788;28;20064;-76
2022/08/01 00:07:45;;;;;;;3.97;0.80;;;23.10;74.30;;;;;;5054885;28;20067;-68
2022/08/01 00:10:13;;;;;;;1.15;0.70;;;23.10;74.40;;;;;;5053034;28;20037;-69
2022/08/01 00:12:39;;;;;;;0.85;0.80;;;23.10;73.90;;;;;;5053608;28;20094;-68
2022/08/01 00:15:07;;;;;;;1.30;0.80;;;23.10;74.10;;;;;;5054502;28;20048;-71
2022/08/01 00:17:33;;;;;;;1.80;1.00;;;23.00;74.20;;;;;;5053168;28;20091;-69
2022/08/01 00:19:59;;;;;;;1.52;1.00;;;23.00;74.70;;;;;;5054397;28;20041;-68
2022/08/01 00:22:25;;;;;;;0.98;0.82;;;23.10;74.30;;;;;;5054415;28;20484;-74
2022/08/01 00:24:51;;;;;;;1.20;0.80;;;23.00;74.00;;;;;;5054697;28;20571;-73
2022/08/01 00:27:17;;;;;;;0.90;0.70;;;23.20;73.70;;;;;;5054730;28;20033;-70
2022/08/01 00:29:43;;;;;;;1.67;0.70;;;23.10;74.00;;;;;;5054503;28;20037;-68
2022/08/01 00:32:08;;;;;;;0.85;0.80;;;23.00;74.20;;;;;;5052906;28;20088;-68
2022/08/01 00:34:34;;;;;;;1.52;0.75;;;23.10;74.40;;;;;;5054244;28;20048;-70
2022/08/01 00:37:00;;;;;;;1.00;0.80;;;22.90;74.60;;;;;;5054212;28;20060;-69
2022/08/01 00:39:25;;;;;;;1.65;0.70;;;22.80;74.90;;;;;;5053025;28;20037;-76
2022/08/01 00:41:51;;;;;;;3.33;1.27;;;22.60;75.30;;;;;;5054221;28;20048;-68
2022/08/01 00:44:17;;;;;;;1.05;0.80;;;22.50;75.60;;;;;;5054117;28;20021;-69
2022/08/01 00:46:43;;;;;;;2.03;0.80;;;22.30;76.10;;;;;;5053924;28;20049;-69
2022/08/01 00:49:08;;;;;;;4.93;1.15;;;22.20;77.00;;;;;;5053894;28;20508;-68
2022/08/01 00:51:34;;;;;;;0.60;0.60;;;22.20;76.70;;;;;;5053890;28;20056;-68
2022/08/01 00:54:01;;;;;;;1.08;0.80;;;22.10;77.20;;;;;;5054000;28;20037;-69
2022/08/01 00:56:28;;;;;;;1.75;1.15;;;22.00;77.40;;;;;;5052976;28;20492;-69
2022/08/01 00:58:55;;;;;;;1.33;0.73;;;22.10;77.60;;;;;;5052322;28;20047;-68
2022/08/01 01:01:23;;;;;;;0.85;0.80;;;22.00;78.00;;;;;;5053568;28;20119;-76
2022/08/01 01:03:50;;;;;;;0.98;0.80;;;21.80;78.40;;;;;;5053330;28;20047;-76
2022/08/01 01:06:51;;;;;;;1.83;0.95;;;21.80;78.60;;;;;;5053978;28;20048;-71
2022/08/01 01:09:55;;;;;;;1.70;1.00;;;21.80;78.70;;;;;;5053958;28;20045;-69
2022/08/01 01:12:37;;;;;;;0.85;0.77;;;21.80;78.40;;;;;;5053591;28;20052;-69
2022/08/01 01:15:18;;;;;;;0.90;0.80;;;21.90;78.20;;;;;;5052311;28;20041;-68
2022/08/01 01:18:09;;;;;;;1.25;0.82;;;21.90;78.20;;;;;;5052396;28;20029;-76
2022/08/01 01:20:45;;;;;;;2.25;0.98;;;21.90;78.70;;;;;;5052253;28;20166;-72
2022/08/01 01:23:48;;;;;;;0.77;0.77;;;21.70;79.20;;;;;;5052823;28;20045;-69
2022/08/01 01:26:26;;;;;;;1.08;0.70;;;21.70;79.50;;;;;;5053573;28;20151;-69
2022/08/01 01:29:18;;;;;;;1.95;0.93;;;21.70;79.70;;;;;;5053287;28;20037;-69
2022/08/01 01:31:57;;;;;;;2.08;0.90;;;21.50;79.70;;;;;;5053338;28;20133;-68
2022/08/01 01:34:25;;;;;;;1.67;1.08;;;21.40;80.40;;;;;;5053146;28;20119;-68
2022/08/01 01:36:54;;;;;;;1.27;0.90;;;21.50;79.70;;;;;;5053176;28;20088;-68
2022/08/01 01:39:24;;;;;;;1.33;1.00;;;21.60;79.10;;;;;;5053054;28;20040;-68
2022/08/01 01:41:53;;;;;;;1.73;0.80;;;21.80;78.90;;;;;;5052019;28;20033;-68
2022/08/01 01:44:19;;;;;;;3.50;0.95;;;21.70;78.30;;;;;;5053132;28;20037;-68
2022/08/01 01:46:47;;;;;;;2.13;0.80;;;21.70;78.50;;;;;;5051989;28;20418;-68
2022/08/01 01:49:13;;;;;;;1.38;0.93;;;21.60;79.10;;;;;;5053210;28;20043;-68
2022/08/01 01:51:42;;;;;;;0.90;0.80;;;21.50;79.50;;;;;;5052992;28;20048;-68
2022/08/01 01:54:09;;;;;;;1.95;1.45;;;21.50;79.70;;;;;;5053059;28;20037;-70
2022/08/01 01:56:48;;;;;;;1.55;1.10;;;21.40;79.60;;;;;;5053302;28;20102;-70
2022/08/01 01:59:18;;;;;;;1.35;1.00;;;21.40;79.50;;;;;;5052967;28;20041;-68
2022/08/01 02:01:45;;;;;;;1.10;0.95;;;21.40;79.30;;;;;;5052787;28;20115;-68
2022/08/01 02:04:12;;;;;;;1.35;1.10;;;21.60;79.00;;;;;;5052861;28;20538;-75
2022/08/01 02:06:39;;;;;;;1.90;0.93;;;21.60;78.60;;;;;;5052834;28;20128;-76
2022/08/01 02:09:06;;;;;;;1.05;0.90;;;21.60;78.90;;;;;;5051997;28;20033;-69
2022/08/01 02:11:32;;;;;;;1.48;1.17;;;21.80;78.60;;;;;;5052856;28;20057;-71
2022/08/01 02:14:02;;;;;;;1.25;0.85;;;21.60;79.10;;;;;;5053001;28;20037;-69
2022/08/01 02:16:33;;;;;;;1.70;0.95;;;21.60;79.20;;;;;;5052911;28;20044;-68
2022/08/01 02:18:59;;;;;;;1.10;0.80;;;21.30;79.00;;;;;;5052879;28;20087;-69
2022/08/01 02:21:32;;;;;;;1.38;0.88;;;21.40;79.00;;;;;;5052552;28;20040;-76
2022/08/01 02:24:28;;;;;;;5.05;0.80;;;21.40;79.50;;;;;;5052594;28;20051;-68
2022/08/01 02:26:59;;;;;;;1.92;0.80;;;21.40;79.40;;;;;;5036472;28;20110;-69
2022/08/01 02:29:36;;;;;;;2.15;1.00;;;21.30;79.30;;;;;;5052393;28;20037;-68
2022/08/01 02:32:04;;;;;;;8.05;0.90;;;21.20;80.20;;;;;;5052510;28;20885;-68
2022/08/01 02:34:32;;;;;;;1.45;0.80;;;21.20;80.10;;;;;;5055695;28;20175;-68
2022/08/01 02:37:00;;;;;;;1.30;0.90;;;21.30;79.80;;;;;;5056635;28;20045;-68
2022/08/01 02:39:28;;;;;;;1.65;0.90;;;21.30;79.50;;;;;;5055282;28;20078;-68
2022/08/01 02:41:58;;;;;;;2.25;0.98;;;21.30;79.50;;;;;;5056606;28;20052;-68
2022/08/01 02:44:29;;;;;;;1.35;1.00;;;21.00;80.50;;;;;;5055410;28;20033;-70
2022/08/01 02:47:02;;;;;;;1.58;0.80;;;21.10;80.70;;;;;;5056547;28;20424;-68
2022/08/01 02:49:35;;;;;;;1.80;1.10;;;21.10;80.40;;;;;;5056465;28;20397;-68
2022/08/01 02:52:08;;;;;;;1.20;0.93;;;21.20;80.30;;;;;;5056360;28;20435;-68
2022/08/01 02:54:35;;;;;;;1.85;1.02;;;21.20;80.50;;;;;;5056465;28;20071;-68
2022/08/01 02:57:03;;;;;;;1.40;1.02;;;21.10;80.70;;;;;;5056526;28;20412;-69
2022/08/01 02:59:31;;;;;;;1.05;0.90;;;21.20;80.50;;;;;;5056380;28;20041;-74
2022/08/01 03:01:59;;;;;;;3.10;0.90;;;21.20;80.70;;;;;;5054724;28;20097;-74
2022/08/01 03:04:26;;;;;;;3.63;1.10;;;21.20;80.50;;;;;;5055254;28;20120;-73
2022/08/01 03:06:57;;;;;;;2.15;1.00;;;21.10;80.90;;;;;;5056190;28;20094;-73
2022/08/01 03:09:23;;;;;;;1.10;1.00;;;21.00;81.30;;;;;;5054856;28;20098;-68
2022/08/01 03:11:50;;;;;;;1.80;1.00;;;20.90;81.30;;;;;;5054866;28;20048;-68
2022/08/01 03:14:18;;;;;;;2.20;1.00;;;20.90;81.40;;;;;;5056192;28;20065;-68
2022/08/01 03:16:47;;;;;;;1.00;0.82;;;20.90;81.10;;;;;;5056127;28;20037;-68
2022/08/01 03:19:15;;;;;;;2.08;1.13;;;20.90;81.30;;;;;;5055921;28;20036;-68
2022/08/01 03:21:43;;;;;;;1.30;1.05;;;21.00;81.20;;;;;;5055423;28;20527;-76
2022/08/01 03:24:11;;;;;;;2.83;1.10;;;21.10;81.00;;;;;;5053923;28;20503;-68
2022/08/01 03:26:39;;;;;;;1.70;0.98;;;21.20;80.60;;;;;;5055847;28;20076;-68
2022/08/01 03:29:09;;;;;;;1.92;1.02;;;21.10;81.10;;;;;;5055846;28;20124;-69
2022/08/01 03:31:37;;;;;;;1.38;1.00;;;20.90;81.30;;;;;;5054440;28;20079;-75
2022/08/01 03:34:05;;;;;;;1.23;1.10;;;20.90;81.70;;;;;;5055632;28;20033;-70
2022/08/01 03:36:32;;;;;;;4.70;1.45;;;21.00;81.30;;;;;;5054499;28;20036;-68
2022/08/01 03:39:02;;;;;;;1.52;1.02;;;21.00;81.20;;;;;;5055512;28;20598;-69
2022/08/01 03:41:33;;;;;;;1.92;1.10;;;21.00;81.20;;;;;;5054243;28;20194;-69
2022/08/01 03:44:05;;;;;;;2.75;1.40;;;21.00;81.10;;;;;;5055239;28;20094;-68
2022/08/01 03:46:45;;;;;;;2.00;1.30;;;21.00;81.40;;;;;;5054025;28;20518;-69
2022/08/01 03:49:25;;;;;;;1.73;1.23;;;21.00;81.30;;;;;;5055167;28;20044;-69
2022/08/01 03:51:52;;;;;;;2.25;1.15;;;20.90;81.50;;;;;;5054946;28;20049;-68
2022/08/01 03:54:27;;;;;;;1.25;1.15;;;20.80;82.80;;;;;;5054982;28;20043;-69
2022/08/01 03:56:54;;;;;;;1.60;1.10;;;20.70;82.50;;;;;;5054967;28;20589;-69
2022/08/01 03:59:21;;;;;;;1.55;1.20;;;20.70;82.60;;;;;;5055033;28;20131;-69
2022/08/01 04:01:47;;;;;;;1.58;1.10;;;20.70;82.40;;;;;;5055088;28;20045;-68
2022/08/01 04:04:13;;;;;;;1.60;1.10;;;20.60;82.80;;;;;;5055017;28;20040;-76
2022/08/01 04:06:40;;;;;;;2.55;1.17;;;20.60;83.20;;;;;;5053924;28;20079;-72
2022/08/01 04:09:09;;;;;;;2.13;1.25;;;20.60;82.90;;;;;;5055156;28;20576;-68
2022/08/01 04:11:36;;;;;;;1.50;1.05;;;20.60;82.80;;;;;;5054671;28;20047;-68
2022/08/01 04:14:01;;;;;;;1.50;1.02;;;20.60;82.70;;;;;;5053643;28;20033;-68
2022/08/01 04:16:27;;;;;;;1.90;1.13;;;20.60;82.70;;;;;;5054513;28;20120;-68
2022/08/01 04:18:53;;;;;;;2.05;1.00;;;20.60;82.70;;;;;;5053261;28;20072;-70
2022/08/01 04:21:24;;;;;;;3.00;1.00;;;20.70;82.50;;;;;;5054727;28;20579;-68
2022/08/01 04:23:52;;;;;;;2.78;1.00;;;20.70;82.60;;;;;;5054692;28;20039;-69
2022/08/01 04:26:21;;;;;;;4.40;1.17;;;20.60;82.80;;;;;;5054529;28;20068;-73
2022/08/01 04:28:49;;;;;;;3.53;1.30;;;20.60;83.00;;;;;;5050413;28;20043;-76
2022/08/01 04:31:17;;;;;;;1.63;1.30;;;20.50;83.60;;;;;;5054503;28;20048;-72
2022/08/01 04:33:47;;;;;;;2.17;1.38;;;20.40;83.90;;;;;;5054671;28;20041;-75
2022/08/01 04:36:14;;;;;;;2.30;1.30;;;20.50;83.90;;;;;;5053979;28;20072;-76
2022/08/01 04:38:45;;;;;;;2.53;1.45;;;20.50;84.00;;;;;;5053707;28;20504;-68
2022/08/01 04:41:13;;;;;;;2.35;1.30;;;20.50;83.80;;;;;;5054103;28;20435;-76
2022/08/01 04:43:41;;;;;;;2.15;1.50;;;20.50;84.40;;;;;;5054433;28;20076;-76
2022/08/01 04:46:08;;;;;;;1.50;1.17;;;20.50;84.00;;;;;;5054134;28;20044;-76
2022/08/01 04:48:38;;;;;;;1.48;1.23;;;20.40;84.00;;;;;;5054060;28;20041;-76
2022/08/01 04:51:11;;;;;;;1.55;1.45;;;20.40;84.00;;;;;;5054194;28;20045;-76
2022/08/01 04:53:36;;;;;;;1.40;1.30;;;20.40;84.30;;;;;;5054252;28;20049;-76
2022/08/01 04:56:02;;;;;;;3.65;1.60;;;20.50;84.10;;;;;;5053944;28;20052;-73
2022/08/01 04:58:28;;;;;;;2.17;1.25;;;20.60;83.90;;;;;;5053757;28;20132;-75
2022/08/01 05:00:54;;;;;;;1.55;1.13;;;20.50;84.20;;;;;;5053241;28;20502;-73
2022/08/01 05:03:19;;;;;;;1.42;1.05;;;20.40;84.30;;;;;;5053121;28;20086;-73
2022/08/01 05:05:45;;;;;;;1.50;1.40;;;20.40;84.40;;;;;;5053739;28;20489;-76
2022/08/01 05:08:11;;;;;;;1.70;1.17;;;20.40;84.40;;;;;;5053776;28;20064;-75
2022/08/01 05:10:37;;;;;;;3.40;1.40;;;20.50;84.30;;;;;;5053592;28;20051;-73
2022/08/01 05:13:02;;;;;;;1.25;1.05;;;20.60;84.00;;;;;;5053681;28;20049;-69
2022/08/01 05:15:28;;;;;;;3.67;1.20;;;20.80;83.60;;;;;;5053527;28;20044;-74
2022/08/01 05:17:54;;;;;;;3.38;1.30;;;20.90;83.20;;;;;;5053679;28;20072;-75
2022/08/01 05:20:20;;;;;;;2.80;1.20;;;21.00;83.10;;;;;;5052145;28;20489;-69
2022/08/01 05:22:46;;;;;;;1.55;1.25;;;21.00;83.10;;;;;;5053534;28;20037;-72
2022/08/01 05:25:13;;;;;;;4.03;1.52;;;21.00;83.40;;;;;;5053026;28;20049;-74
2022/08/01 05:27:41;;;;;;;3.72;1.77;;;21.10;82.90;;;;;;5053344;28;20037;-69
2022/08/01 05:30:08;;;;;;;2.33;1.50;;;21.20;83.00;;;;;;5052031;28;20091;-72
2022/08/01 05:32:34;;;;;;;2.78;1.33;;;21.30;82.80;;;;;;5053135;28;20504;-76
2022/08/01 05:35:00;;;;;;;2.00;1.10;;;21.30;83.20;;;;;;5053106;28;20090;-74
2022/08/01 05:37:25;;;;;;;2.38;1.38;;;21.60;83.70;;;;;;5053199;28;20105;-73
2022/08/01 05:39:51;;;;;;;2.40;1.52;;;21.70;82.70;;;;;;5053221;28;20404;-78
2022/08/01 05:42:17;;;;;;;7.90;1.88;;;21.80;82.50;;;;;;5051963;28;20515;-73
2022/08/01 05:44:43;;;;;;;1.38;1.27;;;22.00;82.50;;;;;;5051885;28;20040;-75
2022/08/01 05:47:08;;;;;;;1.67;1.30;;;22.10;83.40;;;;;;5053011;28;20043;-76
2022/08/01 05:49:34;;;;;;;1.27;1.00;;;22.20;83.40;;;;;;5053192;28;20040;-69
2022/08/01 05:52:01;;;;;;;1.58;1.25;;;22.30;83.20;;;;;;5053116;28;20053;-69
2022/08/01 05:54:27;;;;;;;2.42;1.20;;;22.50;82.90;;;;;;5053223;28;20523;-76
2022/08/01 05:56:54;;;;;;;1.83;1.25;;;22.70;81.50;;;;;;5052939;28;20041;-70
2022/08/01 05:59:20;;;;;;;1.27;0.98;;;22.70;81.70;;;;;;5052829;28;20048;-69
2022/08/01 06:01:46;;;;;;;1.70;1.30;;;22.80;80.80;;;;;;5053019;28;20037;-73
2022/08/01 06:04:11;;;;;;;2.72;1.20;;;23.00;81.00;;;;;;5052976;28;20045;-73
2022/08/01 06:06:38;;;;;;;1.88;1.55;;;;;;;;;;5051642;28;20098;-77
2022/08/01 06:09:03;;;;;;;2.00;1.33;;;23.40;99.10;;;;;;5052050;28;20043;-77
2022/08/01 06:11:29;;;;;;;2.33;1.50;;;;;;;;;;5052922;28;20143;-76
2022/08/01 06:13:55;;;;;;;3.33;1.30;;;23.50;78.90;;;;;;5052986;28;20082;-76
2022/08/01 06:16:21;;;;;;;4.93;1.17;;;;;;;;;;5052748;28;20033;-77
2022/08/01 06:18:47;;;;;;;1.67;1.10;;;23.50;79.30;;;;;;5052759;28;20045;-79
2022/08/01 06:21:13;;;;;;;2.47;1.40;;;23.70;79.70;;;;;;5052875;28;20385;-69
2022/08/01 06:23:39;;;;;;;3.08;1.42;;;23.90;78.90;;;;;;5052843;28;20072;-67
2022/08/01 06:26:05;;;;;;;1.95;1.10;;;23.90;77.50;;;;;;5052751;28;20044;-71
2022/08/01 06:28:31;;;;;;;4.00;1.38;;;24.00;77.90;;;;;;5051437;28;20037;-71
2022/08/01 06:30:58;;;;;;;2.08;1.17;;;;;;;;;;5052423;28;20040;-76
2022/08/01 06:33:25;;;;;;;2.08;1.48;;;24.30;92.50;;;;;;5052470;28;20381;-72
2022/08/01 06:35:50;;;;;;;1.75;1.10;;;24.30;77.60;;;;;;5052746;28;20047;-69
2022/08/01 06:38:16;;;;;;;1.55;1.10;;;24.40;87.80;;;;;;5051482;28;20041;-71
2022/08/01 06:40:42;;;;;;;1.30;1.10;;;24.60;80.70;;;;;;5052698;28;20514;-69
2022/08/01 06:43:08;;;;;;;2.53;1.17;;;24.60;77.20;;;;;;5052572;28;20040;-78
2022/08/01 06:45:36;;;;;;;3.08;1.40;;;24.80;76.80;;;;;;5052495;28;20033;-73
2022/08/01 06:48:02;;;;;;;1.90;1.42;;;24.90;77.00;;;;;;5048478;28;20041;-72
2022/08/01 06:50:27;;;;;;;1.98;1.08;;;25.10;76.90;;;;;;5052494;28;20037;-78
2022/08/01 06:52:53;;;;;;;1.40;1.15;;;25.20;77.10;;;;;;5051142;28;20446;-76
2022/08/01 06:55:19;;;;;;;1.63;1.02;;;25.40;78.10;;;;;;5052498;28;20041;-78
2022/08/01 06:57:52;;;;;;;1.02;0.90;;;25.80;77.00;;;;;;5051294;28;20033;-77
2022/08/01 07:00:22;;;;;;;5.10;1.40;;;26.10;75.70;;;;;;5052289;28;20052;-72
2022/08/01 07:02:50;;;;;;;1.55;1.08;;;26.10;75.50;;;;;;5052401;28;20045;-78
2022/08/01 07:05:16;;;;;;;2.00;1.02;;;26.20;75.20;;;;;;5044483;28;20076;-70
2022/08/01 07:07:42;;;;;;;2.58;1.35;;;26.50;74.30;;;;;;5051339;28;20730;-77
2022/08/01 07:10:08;;;;;;;1.42;0.98;;;27.30;73.10;;;;;;5052303;28;20037;-69
2022/08/01 07:12:36;;;;;;;1.73;1.30;;;27.20;72.70;;;;;;5039571;28;20052;-73
2022/08/01 07:15:04;;;;;;;3.22;1.00;;;27.10;73.60;;;;;;5031143;28;20052;-78
2022/08/01 07:17:30;;;;;;;1.52;1.17;;;27.00;73.10;;;;;;5031117;28;20563;-75
2022/08/01 07:19:55;;;;;;;3.35;1.20;;;27.40;72.90;;;;;;5032944;28;20041;-70
2022/08/01 07:22:21;;;;;;;2.00;1.10;;;27.80;73.00;;;;;;5036034;28;20167;-77
2022/08/01 07:24:47;;;;;;;1.90;0.88;;;28.70;71.00;;;;;;5035969;28;20185;-70
2022/08/01 07:27:12;;;;;;;1.35;1.13;;;28.90;68.80;;;;;;5035896;28;20069;-72
2022/08/01 07:29:38;;;;;;;1.10;0.75;;;28.90;69.40;;;;;;5035793;28;20092;-77
2022/08/01 07:32:04;;;;;;;1.10;0.95;;;29.20;69.30;;;;;;5035807;28;20060;-77
2022/08/01 07:34:30;;;;;;;6.47;1.20;;;29.30;67.80;;;;;;5035629;28;20048;-74
2022/08/01 07:36:56;;;;;;;3.72;1.00;;;29.60;69.30;;;;;;5035944;28;20037;-70
2022/08/01 07:39:22;;;;;;;3.75;1.10;;;29.70;67.40;;;;;;5035827;28;20166;-73
2022/08/01 07:41:48;;;;;;;4.38;1.10;;;29.80;67.90;;;;;;5035775;28;20527;-76
2022/08/01 07:44:14;;;;;;;3.90;0.88;;;29.80;68.10;;;;;;5055408;28;20127;-76
2022/08/01 07:46:39;;;;;;;1.00;0.90;;;29.90;66.90;;;;;;5055435;28;20138;-68
2022/08/01 07:49:05;;;;;;;1.67;1.30;;;30.00;68.40;;;;;;5054096;28;20037;-78
2022/08/01 07:51:31;;;;;;;1.33;1.02;;;30.00;67.60;;;;;;5055291;28;20041;-72
2022/08/01 07:53:57;;;;;;;1.58;0.82;;;30.10;67.80;;;;;;5055490;28;20045;-70
2022/08/01 07:56:23;;;;;;;1.65;0.93;;;30.40;68.30;;;;;;5055371;28;20573;-76
2022/08/01 07:58:50;;;;;;;1.15;0.98;;;30.20;67.10;;;;;;5053937;28;20505;-76
2022/08/01 08:01:16;;;;;;;1.80;1.20;;;29.90;66.50;;;;;;5055114;28;20067;-67
2022/08/01 08:03:41;;;;;;;2.08;1.20;;;29.80;66.40;;;;;;5055107;28;20504;-82
2022/08/01 08:06:07;;;;;;;1.00;0.90;;;29.30;66.30;;;;;;5054750;28;20036;-79
2022/08/01 08:08:34;;;;;;;1.05;0.80;;;29.50;67.60;;;;;;5054989;28;20044;-79
2022/08/01 08:11:00;;;;;;;1.98;0.98;;;29.90;66.30;;;;;;5055008;28;20404;-78
2022/08/01 08:13:27;;;;;;;2.08;1.48;;;29.50;65.70;;;;;;5055078;28;20040;-68
2022/08/01 08:15:53;;;;;;;3.47;1.95;;;29.70;66.70;;;;;;5055031;28;20083;-78
2022/08/01 08:18:19;;;;;;;3.05;2.75;;;29.90;67.00;;;;;;5053879;28;20040;-69
2022/08/01 08:20:44;;;;;;;1.38;0.93;;;30.40;66.30;;;;;;5053730;28;20040;-75
2022/08/01 08:25:55;;;;;;;0.70;0.60;;;30.40;65.50;;;;;;5048770;28;20049;-69
2022/08/01 08:28:21;;;;;;;1.48;0.95;;;30.40;64.30;;;;;;5045744;28;20041;-70
2022/08/01 08:30:47;;;;;;;2.88;0.75;;;30.50;67.40;;;;;;5034320;28;20046;-68
2022/08/01 08:33:12;;;;;;;1.63;1.10;;;29.70;64.80;;;;;;5046053;28;20037;-69
2022/08/01 08:35:41;;;;;;;3.17;1.38;;;29.10;65.70;;;;;;5054611;28;20411;-70
2022/08/01 08:38:07;;;;;;;3.33;1.85;;;29.60;66.50;;;;;;5053225;28;20041;-69
2022/08/01 08:40:36;;;;;;;1.27;1.10;;;30.50;65.90;;;;;;5038392;28;20053;-69
2022/08/01 08:43:05;;;;;;;3.80;1.10;;;30.70;65.50;;;;;;5066710;28;20040;-70
2022/08/01 08:45:31;;;;;;;2.85;1.25;;;30.90;64.90;;;;;;5034601;28;20051;-70
2022/08/01 08:47:58;;;;;;;3.47;1.05;;;30.80;66.10;;;;;;5034416;28;20033;-76
2022/08/01 08:50:25;;;;;;;3.15;1.10;;;30.70;64.80;;;;;;5034487;28;20504;-70
2022/08/01 08:52:56;;;;;;;0.90;0.77;;;31.20;65.70;;;;;;5066156;28;20148;-68
2022/08/01 08:55:24;;;;;;;1.00;0.90;;;31.30;65.70;;;;;;5032920;28;20040;-69
2022/08/01 08:57:52;;;;;;;2.75;1.40;;;31.40;64.70;;;;;;5032732;28;20037;-69
2022/08/01 09:00:18;;;;;;;1.85;0.77;;;31.40;63.40;;;;;;5033936;28;20053;-68
2022/08/01 09:02:46;;;;;;;1.20;1.00;;;31.00;64.00;;;;;;5034519;28;20037;-68
2022/08/01 09:05:12;;;;;;;1.10;0.90;;;31.10;62.80;;;;;;5065981;28;20084;-69
2022/08/01 09:07:38;;;;;;;2.17;1.30;;;31.00;64.50;;;;;;5066203;28;20049;-68
2022/08/01 09:10:05;;;;;;;1.70;1.00;;;31.50;64.50;;;;;;5034044;28;20091;-68
2022/08/01 09:12:31;;;;;;;3.72;1.08;;;31.00;63.10;;;;;;5033722;28;20092;-68
2022/08/01 09:14:57;;;;;;;1.83;1.00;;;31.40;64.80;;;;;;5033869;28;20100;-68
2022/08/01 09:17:23;;;;;;;1.50;1.10;;;31.20;63.10;;;;;;5033776;28;20041;-68
2022/08/01 09:19:51;;;;;;;1.42;1.13;;;31.70;64.30;;;;;;5065520;28;20075;-65
2022/08/01 09:22:22;;;;;;;1.80;1.13;;;32.00;61.90;;;;;;5033635;28;20056;-70
2022/08/01 09:25:03;;;;;;;0.98;0.80;;;31.40;62.50;;;;;;5033577;28;20123;-68
2022/08/01 09:27:30;;;;;;;1.20;0.98;;;31.10;62.40;;;;;;5065735;28;20090;-66
2022/08/01 09:30:10;;;;;;;1.25;1.13;;;30.80;62.80;;;;;;5033421;28;20052;-65
2022/08/01 09:32:35;;;;;;;1.33;0.90;;;30.30;63.70;;;;;;5033081;28;20049;-66
2022/08/01 09:35:25;;;;;;;1.40;0.98;;;30.80;63.60;;;;;;5031816;28;20404;-65
2022/08/01 09:37:50;;;;;;;1.92;1.02;;;31.20;62.90;;;;;;5031576;28;20033;-65
2022/08/01 09:40:16;;;;;;;1.13;1.02;;;31.50;63.20;;;;;;5031631;28;20547;-65
2022/08/01 09:42:42;;;;;;;1.40;1.10;;;31.10;62.80;;;;;;5030968;28;20037;-65
2022/08/01 09:45:08;;;;;;;2.45;1.13;;;30.70;63.20;;;;;;5031779;28;20048;-65
2022/08/01 09:47:38;;;;;;;1.02;0.88;;;30.50;64.10;;;;;;5042464;28;20588;-66
2022/08/01 09:50:05;;;;;;;1.20;1.00;;;30.90;63.20;;;;;;5052790;28;20504;-66
2022/08/01 09:52:30;;;;;;;1.08;0.80;;;30.50;63.50;;;;;;5053295;28;20531;-65
2022/08/01 09:54:59;;;;;;;1.23;0.93;;;30.20;64.20;;;;;;5053207;28;20033;-66
2022/08/01 09:57:26;;;;;;;2.38;1.05;;;29.80;64.30;;;;;;5051790;28;20037;-65
2022/08/01 09:59:58;;;;;;;1.38;1.05;;;30.60;64.00;;;;;;5051626;28;20043;-66
2022/08/01 10:02:33;;;;;;;1.25;1.15;;;31.10;64.00;;;;;;5050174;28;20044;-66
2022/08/01 10:05:02;;;;;;;1.33;0.88;;;30.50;63.80;;;;;;5044923;28;20061;-66
2022/08/01 10:07:28;;;;;;;1.25;1.10;;;30.70;63.90;;;;;;5078276;28;20613;-66
2022/08/01 10:09:54;;;;;;;2.10;1.23;;;31.00;63.50;;;;;;5051134;28;20041;-66
2022/08/01 10:12:23;;;;;;;4.55;1.20;;;30.20;62.70;;;;;;5051169;28;20052;-72
2022/08/01 10:14:50;;;;;;;0.87;0.83;;;30.90;62.90;;;;;;5050515;28;20047;-66
2022/08/01 10:17:18;;;;;;;1.25;1.10;;;30.80;63.10;;;;;;5052629;28;20300;-66
2022/08/01 10:19:45;;;;;;;1.27;0.90;;;30.80;63.40;;;;;;5052701;28;20033;-66
2022/08/01 10:22:17;;;;;;;1.85;1.35;;;31.30;63.30;;;;;;5052792;28;20049;-69
2022/08/01 10:24:46;;;;;;;1.42;1.17;;;31.50;63.40;;;;;;5052888;28;20127;-69
2022/08/01 10:27:14;;;;;;;1.50;1.15;;;31.30;62.10;;;;;;5052897;28;20082;-71
2022/08/01 10:29:48;;;;;;;3.70;1.10;;;30.70;62.90;;;;;;5041331;28;20036;-69
2022/08/01 10:32:14;;;;;;;1.42;1.15;;;30.00;64.50;;;;;;5030350;28;20063;-69
2022/08/01 10:34:40;;;;;;;1.25;0.88;;;30.50;63.50;;;;;;5032736;28;20041;-68
2022/08/01 10:37:07;;;;;;;1.45;1.15;;;30.80;62.40;;;;;;5031723;28;20179;-69
2022/08/01 10:39:34;;;;;;;1.42;0.98;;;31.10;62.40;;;;;;5032219;28;20064;-69
2022/08/01 10:42:00;;;;;;;2.45;0.90;;;31.30;62.40;;;;;;5032411;28;20534;-68
2022/08/01 10:44:29;;;;;;;4.32;1.00;;;31.30;61.80;;;;;;5032732;28;20094;-68
2022/08/01 10:47:24;;;;;;;1.13;0.93;;;31.50;63.50;;;;;;5032888;28;20049;-69
2022/08/01 10:49:58;;;;;;;1.08;0.98;;;31.20;62.40;;;;;;5021078;28;20048;-69
2022/08/01 10:52:24;;;;;;;2.05;1.15;;;30.90;62.80;;;;;;5032652;28;20045;-68
2022/08/01 10:55:05;;;;;;;1.02;0.95;;;31.00;63.20;;;;;;5033517;28;20037;-68
2022/08/01 10:57:47;;;;;;;3.15;1.20;;;30.90;63.70;;;;;;5035283;28;20175;-68
2022/08/01 11:00:21;;;;;;;3.95;1.40;;;30.40;62.70;;;;;;5035025;28;20503;-69
2022/08/01 11:03:00;;;;;;;4.80;1.20;;;30.20;62.90;;;;;;5035156;28;20102;-68
2022/08/01 11:05:30;;;;;;;2.40;1.20;;;29.60;63.70;;;;;;5033483;28;20524;-68
2022/08/01 11:07:58;;;;;;;1.10;0.80;;;29.20;64.30;;;;;;5034547;28;20076;-68
2022/08/01 11:10:37;;;;;;;1.85;1.23;;;29.90;63.20;;;;;;5034956;28;20513;-69
2022/08/01 11:13:07;;;;;;;1.35;0.70;;;29.60;63.10;;;;;;5036322;28;20102;-69
2022/08/01 11:15:33;;;;;;;0.85;0.70;;;30.40;62.20;;;;;;5034935;28;20041;-72
2022/08/01 11:18:23;;;;;;;1.35;1.00;;;30.60;61.90;;;;;;5036022;28;20167;-69
2022/08/01 11:21:00;;;;;;;1.08;0.85;;;31.00;63.70;;;;;;5035886;28;20037;-68
2022/08/01 11:23:29;;;;;;;1.75;1.30;;;30.20;63.20;;;;;;5036063;28;20140;-69
2022/08/01 11:25:54;;;;;;;1.52;1.13;;;30.30;64.00;;;;;;5036304;28;20045;-69
2022/08/01 11:28:25;;;;;;;1.17;1.00;;;30.30;62.30;;;;;;5036028;28;20040;-68
2022/08/01 11:30:54;;;;;;;1.52;1.00;;;30.50;63.40;;;;;;5034602;28;20045;-68
2022/08/01 11:33:44;;;;;;;2.15;1.25;;;30.50;63.30;;;;;;5037218;28;20528;-68
2022/08/01 11:36:12;;;;;;;1.95;1.25;;;31.10;63.00;;;;;;5048737;28;20049;-68
2022/08/01 11:38:59;;;;;;;1.42;0.85;;;31.10;62.80;;;;;;5043753;28;20527;-69
2022/08/01 11:41:32;;;;;;;1.13;1.00;;;31.40;62.30;;;;;;5035376;28;20073;-70
2022/08/01 11:44:06;;;;;;;2.72;0.95;;;30.90;61.80;;;;;;5038566;28;20056;-70
2022/08/01 11:46:59;;;;;;;2.13;0.90;;;30.80;61.90;;;;;;5053850;28;20129;-71
2022/08/01 11:49:25;;;;;;;1.30;0.98;;;30.30;62.30;;;;;;5055388;28;20056;-70
2022/08/01 11:52:12;;;;;;;2.60;0.90;;;30.60;62.30;;;;;;5054706;28;20139;-69
2022/08/01 11:54:40;;;;;;;1.50;0.75;;;31.10;61.40;;;;;;5053098;28;20114;-70
2022/08/01 11:57:08;;;;;;;2.30;0.80;;;31.60;59.60;;;;;;5052863;28;20033;-70
2022/08/01 11:59:54;;;;;;;0.90;0.70;;;31.70;59.90;;;;;;5053231;28;20041;-72
2022/08/01 12:02:25;;;;;;;1.20;0.93;;;32.50;58.10;;;;;;5052870;28;20036;-69
2022/08/01 12:05:10;;;;;;;0.60;0.60;;;31.90;60.20;;;;;;5054920;28;20044;-75
2022/08/01 12:07:38;;;;;;;0.70;0.60;;;31.90;57.80;;;;;;5054273;28;20064;-71
2022/08/01 12:10:15;;;;;;;1.50;1.05;;;32.70;57.20;;;;;;5053693;28;20107;-70
2022/08/01 12:12:45;;;;;;;2.42;1.17;;;31.30;61.00;;;;;;5052622;28;20051;-75
2022/08/01 12:15:11;;;;;;;1.80;1.00;;;30.90;61.20;;;;;;5052548;28;20033;-69
2022/08/01 12:17:46;;;;;;;2.15;1.15;;;30.90;62.00;;;;;;5052669;28;20032;-70
2022/08/01 12:20:20;;;;;;;0.80;0.70;;;30.40;61.60;;;;;;5052709;28;20492;-72
2022/08/01 12:22:47;;;;;;;0.95;0.85;;;30.20;61.90;;;;;;5052660;28;20056;-69
2022/08/01 12:25:15;;;;;;;0.98;0.85;;;30.70;64.50;;;;;;5053003;28;20132;-69
2022/08/01 12:27:45;;;;;;;0.70;0.70;;;31.20;59.90;;;;;;5054095;28;20053;-75
2022/08/01 12:30:17;;;;;;;0.98;0.80;;;31.90;59.70;;;;;;5036385;28;20041;-68
2022/08/01 12:32:46;;;;;;;0.45;0.45;;;31.90;57.10;;;;;;5051963;28;20419;-69
2022/08/01 12:35:14;;;;;;;2.58;0.70;;;32.30;56.20;;;;;;5051103;28;20064;-69
2022/08/01 12:37:43;;;;;;;0.45;0.45;;;32.90;54.40;;;;;;5052373;28;20134;-75
2022/08/01 12:40:12;;;;;;;0.50;0.50;;;32.60;54.10;;;;;;5051785;28;20037;-70
2022/08/01 12:42:39;;;;;;;0.52;0.45;;;32.40;53.60;;;;;;5053459;28;20443;-74
2022/08/01 12:45:08;;;;;;;0.95;0.68;;;33.30;54.50;;;;;;5052255;28;20037;-74
2022/08/01 12:47:38;;;;;;;0.70;0.50;;;33.30;53.30;;;;;;5050585;28;20041;-71
2022/08/01 12:50:11;;;;;;;0.65;0.40;;;33.30;54.80;;;;;;5052339;28;20044;-70
2022/08/01 12:52:37;;;;;;;1.50;0.55;;;33.80;53.70;;;;;;5054022;28;20052;-74
2022/08/01 12:55:09;;;;;;;0.50;0.50;;;33.20;52.60;;;;;;5053768;28;20123;-74
2022/08/01 12:57:40;;;;;;;4.15;0.77;;;33.20;54.10;;;;;;5053038;28;20606;-73
2022/08/01 13:00:24;;;;;;;0.90;0.50;;;33.70;53.00;;;;;;5051714;28;20082;-73